Terminal Aerodrome Forecast
Issued by NWS Binghamton, NY

Home | Current Version | Previous Version | Text Only | Print | Product List | Glossary On
Versions: 1 2 3 4 5 6 7 8 9 10 11 12 13 14 15 16 17
938
FTUS41 KBGM 262320
TAFSYR
TAF
KSYR 262320Z 2700/2724 18005KT P6SM FEW040 OVC130
     FM270500 18005KT P6SM SCT040 OVC080
     FM271100 VRB05KT 4SM -SHRA BR SCT025 OVC040
      TEMPO 2713/2717 2SM SHRA BR OVC025
     FM271900 VRB05KT P6SM SCT035 OVC070=

USA.gov is the U.S. government's official web portal to all federal, state and local government web resources and services.